Terminal Aerodrome Forecast
Issued by NWS Dodge City, KS

Home | Current Version | Previous Version | Graphics & Text | Print | Product List | Glossary Off
Versions: 1 2 3 4 5 6 7 8 9 10 11 12 13 14 15 16 17 18 19 20 21 22 23 24 25 26 27 28 29 30 31 32 33 34 35 36

000
FTUS43 KDDC 060119 AAB
TAFDDC
TAF AMD
KDDC 060119Z 0601/0624 15018G25KT P6SM SCT013 BKN023
     FM060300 15018G25KT P6SM VCSH BKN025
     FM060430 15017KT 5SM BR BKN005
     FM061500 18020G30KT P6SM BKN015
     FM061700 18020G30KT P6SM SCT050=

USA.gov is the U.S. government's official web portal to all federal, state and local government web resources and services.